Terminal Aerodrome Forecast
Issued by NWS Charleston, WV

Current Version | Previous Version | Graphics & Text | Print | Product List | Glossary On
Versions: 1 2 3 4 5 6 7 8 9 10 11 12 13 14 15 16 17 18 19 20 21 22 23 24 25 26
000
FTUS41 KRLX 132109 AAA
TAFHTS
TAF AMD
KHTS 132109Z 1321/1418 06004KT P6SM FEW045
     FM140600 00000KT 4SM BR FEW140
     FM140800 00000KT P6SM BKN100
     FM141200 00000KT P6SM -SHRA OVC050 PROB30 1414/1418 4SM -RA=

USA.gov is the U.S. government's official web portal to all federal, state and local government web resources and services.